Time;durP1;ratioP1;P1;durP2;ratioP2;P2;SDS_P1;SDS_P2;PMS_P1;PMS_P2;Temp;Humidity;BMP_temperature;BMP_pressure;BME280_temperature;BME280_humidity;BME280_pressure;Samples;Min_cycle;Max_cycle;Signal;HPM_P1;HPM_P2
2023/02/01 00:00:54;;;;;;;19.20;6.70;;;6.20;99.90;;;;;;5078356;28;20543;-72
2023/02/01 00:03:24;;;;;;;14.93;5.53;;;6.10;99.90;;;;;;5078576;28;20436;-72
2023/02/01 00:05:58;;;;;;;24.83;6.63;;;6.20;99.90;;;;;;5096456;28;20433;-72
2023/02/01 00:08:27;;;;;;;20.57;6.47;;;6.20;99.90;;;;;;5096319;28;20486;-72
2023/02/01 00:11:02;;;;;;;17.33;6.33;;;6.20;99.90;;;;;;5078141;28;20448;-72
2023/02/01 00:13:30;;;;;;;18.53;6.03;;;6.20;99.90;;;;;;5078089;28;20444;-73
2023/02/01 00:16:06;;;;;;;22.20;6.80;;;6.20;99.90;;;;;;5096381;28;20866;-72
2023/02/01 00:18:36;;;;;;;20.17;5.83;;;6.20;99.90;;;;;;5078118;28;20471;-72
2023/02/01 00:21:05;;;;;;;28.73;6.67;;;6.20;99.90;;;;;;5096291;28;21060;-72
2023/02/01 00:23:34;;;;;;;21.40;6.97;;;6.20;99.90;;;;;;5096346;28;20440;-72
2023/02/01 00:26:03;;;;;;;19.30;6.60;;;6.20;99.90;;;;;;5078192;28;20452;-72
2023/02/01 00:28:31;;;;;;;20.47;5.80;;;6.20;99.90;;;;;;5095999;28;20449;-72
2023/02/01 00:31:00;;;;;;;18.17;6.50;;;6.20;99.90;;;;;;5077740;28;20502;-72
2023/02/01 00:33:29;;;;;;;21.47;6.50;;;6.20;99.90;;;;;;5095904;28;20432;-72
2023/02/01 00:35:59;;;;;;;17.90;6.03;;;6.30;99.90;;;;;;5095782;28;20464;-72
2023/02/01 00:38:27;;;;;;;19.80;5.83;;;6.30;99.90;;;;;;5096007;28;20456;-72
2023/02/01 00:40:56;;;;;;;26.27;7.03;;;6.30;99.90;;;;;;5077614;28;20974;-72
2023/02/01 00:43:24;;;;;;;21.73;6.63;;;6.30;99.90;;;;;;5077600;28;20628;-72
2023/02/01 00:45:52;;;;;;;23.70;7.20;;;6.30;99.90;;;;;;5077500;28;20446;-72
2023/02/01 00:48:20;;;;;;;24.27;7.03;;;6.30;99.90;;;;;;5095744;28;20488;-72
2023/02/01 00:50:48;;;;;;;20.50;6.60;;;6.20;99.90;;;;;;5077422;28;20447;-72
2023/02/01 00:53:19;;;;;;;23.93;6.70;;;6.30;99.90;;;;;;5077373;28;20437;-73
2023/02/01 00:55:47;;;;;;;20.90;6.80;;;6.30;99.90;;;;;;5077250;28;20551;-72
2023/02/01 00:58:15;;;;;;;19.13;6.00;;;6.20;99.90;;;;;;5076700;28;20472;-72
2023/02/01 01:00:43;;;;;;;18.13;6.50;;;6.30;99.90;;;;;;5095407;28;20968;-72
2023/02/01 01:03:18;;;;;;;19.47;7.00;;;6.30;99.90;;;;;;5095293;28;20796;-72
2023/02/01 01:05:46;;;;;;;19.10;6.27;;;6.30;99.90;;;;;;5095584;28;20419;-72
2023/02/01 01:08:15;;;;;;;20.30;6.63;;;6.30;99.90;;;;;;5077209;28;20461;-72
2023/02/01 01:10:45;;;;;;;21.47;7.10;;;6.30;99.90;;;;;;5076999;28;20989;-72
2023/02/01 01:13:13;;;;;;;20.20;6.20;;;6.30;99.90;;;;;;5076952;28;20481;-72
2023/02/01 01:15:41;;;;;;;19.33;6.33;;;6.30;99.90;;;;;;5077485;28;20971;-72
2023/02/01 01:18:12;;;;;;;20.00;6.80;;;6.30;99.90;;;;;;5076709;28;20473;-72
2023/02/01 01:20:41;;;;;;;21.27;6.53;;;6.30;99.90;;;;;;5076961;28;20445;-72
2023/02/01 01:23:10;;;;;;;18.17;5.70;;;6.30;99.90;;;;;;5095208;28;20848;-73
2023/02/01 01:25:39;;;;;;;17.90;5.53;;;6.30;99.90;;;;;;5076731;28;20479;-72
2023/02/01 01:28:08;;;;;;;18.10;6.27;;;6.30;99.90;;;;;;5076691;28;20468;-73
2023/02/01 01:30:37;;;;;;;18.73;5.40;;;6.30;99.90;;;;;;5076636;28;20444;-72
2023/02/01 01:33:05;;;;;;;21.70;6.43;;;6.30;99.90;;;;;;5076435;28;21047;-72
2023/02/01 01:35:33;;;;;;;17.90;6.10;;;6.30;99.90;;;;;;5076583;28;20437;-72
2023/02/01 01:38:03;;;;;;;15.57;5.40;;;6.30;99.90;;;;;;5076340;28;20986;-72
2023/02/01 01:40:32;;;;;;;21.40;7.07;;;6.30;99.90;;;;;;5076705;28;20443;-72
2023/02/01 01:43:00;;;;;;;15.57;5.90;;;6.30;99.90;;;;;;5076378;28;20456;-72
2023/02/01 01:45:31;;;;;;;18.17;5.87;;;6.30;99.90;;;;;;5076366;28;20860;-72
2023/02/01 01:48:05;;;;;;;21.23;6.63;;;6.30;99.90;;;;;;5076469;28;20959;-72
2023/02/01 01:50:38;;;;;;;18.73;6.10;;;6.30;99.90;;;;;;5076243;28;20479;-72
2023/02/01 01:53:10;;;;;;;13.70;5.00;;;6.30;99.90;;;;;;5094932;28;20421;-72
2023/02/01 01:55:43;;;;;;;22.30;7.10;;;6.30;99.90;;;;;;5094658;28;20763;-73
2023/02/01 01:58:15;;;;;;;18.93;5.90;;;6.30;99.90;;;;;;5076024;28;20489;-72
2023/02/01 02:00:46;;;;;;;13.40;5.00;;;6.30;99.90;;;;;;5094549;28;20463;-72
2023/02/01 02:03:18;;;;;;;15.07;6.07;;;6.30;99.90;;;;;;5076052;28;20458;-72
2023/02/01 02:05:48;;;;;;;18.30;6.30;;;6.30;99.90;;;;;;5076100;28;20796;-72
2023/02/01 02:08:17;;;;;;;14.87;5.17;;;6.30;99.90;;;;;;5094128;28;20838;-72
2023/02/01 02:11:00;;;;;;;20.27;6.00;;;6.30;99.90;;;;;;5075450;28;20441;-73
2023/02/01 02:13:33;;;;;;;18.53;6.63;;;6.30;99.90;;;;;;5094664;28;20440;-72
2023/02/01 02:16:19;;;;;;;20.70;6.47;;;6.30;99.90;;;;;;5076008;28;20438;-72
2023/02/01 02:18:57;;;;;;;24.57;7.03;;;6.30;99.90;;;;;;5075765;28;20887;-73
2023/02/01 02:21:43;;;;;;;24.00;6.27;;;6.30;99.90;;;;;;5075861;28;20440;-72
2023/02/01 02:24:42;;;;;;;17.63;6.17;;;6.30;99.90;;;;;;5094471;28;20446;-72
2023/02/01 02:27:24;;;;;;;17.20;7.20;;;6.30;99.90;;;;;;5075719;28;20433;-72
2023/02/01 02:30:37;;;;;;;18.53;7.03;;;6.30;99.90;;;;;;5075896;28;20451;-72
2023/02/01 02:33:34;;;;;;;22.13;6.80;;;6.30;99.90;;;;;;5051889;28;20983;-72
2023/02/01 02:36:10;;;;;;;20.53;6.93;;;6.30;99.90;;;;;;5084231;28;20452;-72
2023/02/01 02:38:45;;;;;;;19.67;6.97;;;6.30;99.90;;;;;;5093668;28;20477;-72
2023/02/01 02:47:23;;;;;;;18.13;6.63;;;6.30;99.90;;;;;;5075457;28;20521;-72
2023/02/01 02:47:25;;;;;;;16.90;5.37;;;6.30;99.90;;;;;;5075518;28;20794;-72
2023/02/01 02:55:40;;;;;;;18.50;5.93;;;6.30;99.90;;;;;;5076212;28;20463;-72
2023/02/01 03:04:08;;;;;;;18.87;5.70;;;6.30;99.90;;;;;;5075297;28;20446;-72
2023/02/01 03:06:40;;;;;;;20.03;6.43;;;6.30;99.90;;;;;;5075093;28;20446;-72
2023/02/01 03:09:13;;;;;;;15.90;6.30;;;6.30;99.90;;;;;;5074998;28;20548;-72
2023/02/01 03:14:34;;;;;;;22.33;7.13;;;6.30;99.90;;;;;;5075219;28;20537;-72
2023/02/01 03:17:08;;;;;;;21.23;6.07;;;6.30;99.90;;;;;;5075081;28;20438;-73
2023/02/01 03:19:43;;;;;;;19.20;5.93;;;6.30;99.90;;;;;;5075270;28;20432;-72
2023/02/01 03:22:15;;;;;;;19.47;6.47;;;6.30;99.90;;;;;;5078959;28;20445;-73
2023/02/01 03:24:47;;;;;;;19.87;6.60;;;6.30;99.90;;;;;;5097874;28;20428;-72
2023/02/01 03:27:20;;;;;;;19.30;6.40;;;6.30;99.90;;;;;;5079140;28;20490;-73
2023/02/01 03:29:55;;;;;;;16.40;6.20;;;6.30;99.90;;;;;;5079378;28;20433;-73
2023/02/01 03:32:24;;;;;;;21.43;6.60;;;6.20;99.90;;;;;;5079155;28;20444;-73
2023/02/01 03:34:53;;;;;;;20.80;5.53;;;6.20;99.90;;;;;;5078945;28;20462;-73
2023/02/01 03:37:26;;;;;;;14.23;5.67;;;6.20;99.90;;;;;;5079049;28;20556;-73
2023/02/01 03:40:00;;;;;;;17.77;6.13;;;6.10;99.90;;;;;;5079024;28;20439;-73
2023/02/01 03:42:38;;;;;;;22.10;6.53;;;6.10;99.90;;;;;;5078933;28;20975;-73
2023/02/01 03:45:13;;;;;;;17.57;5.17;;;6.10;99.90;;;;;;5078908;28;20439;-73
2023/02/01 03:47:46;;;;;;;15.20;5.77;;;6.00;99.90;;;;;;5097052;28;20447;-73
2023/02/01 03:50:18;;;;;;;16.77;4.77;;;6.00;99.90;;;;;;5078744;28;20814;-73
2023/02/01 03:52:52;;;;;;;12.57;4.23;;;6.00;99.90;;;;;;5079621;28;20444;-74
2023/02/01 03:55:23;;;;;;;18.40;4.33;;;6.00;99.90;;;;;;5097027;28;20466;-73
2023/02/01 03:57:57;;;;;;;13.10;4.60;;;5.90;99.90;;;;;;5078204;28;20857;-73
2023/02/01 04:00:26;;;;;;;19.87;5.47;;;5.90;99.90;;;;;;5078464;28;20437;-74
2023/02/01 04:02:57;;;;;;;12.20;5.90;;;5.90;99.90;;;;;;5079403;28;20440;-73
2023/02/01 04:05:25;;;;;;;20.90;6.03;;;5.80;99.90;;;;;;5078379;28;20460;-73
2023/02/01 04:07:59;;;;;;;14.37;5.20;;;5.80;99.90;;;;;;5078343;28;20990;-73
2023/02/01 04:10:28;;;;;;;15.53;5.30;;;5.80;99.90;;;;;;5096680;28;20849;-73
2023/02/01 04:12:56;;;;;;;18.40;5.67;;;5.80;99.90;;;;;;5096668;28;20445;-74
2023/02/01 04:15:24;;;;;;;17.37;6.20;;;5.80;99.90;;;;;;5096347;28;20428;-73
2023/02/01 04:17:53;;;;;;;15.57;6.33;;;5.70;99.90;;;;;;5096112;28;20983;-73
2023/02/01 04:20:21;;;;;;;23.07;7.17;;;5.70;99.90;;;;;;5096474;28;20440;-73
2023/02/01 04:22:49;;;;;;;17.50;6.00;;;5.70;99.90;;;;;;5096246;28;20471;-73
2023/02/01 04:25:19;;;;;;;21.50;6.40;;;5.70;99.90;;;;;;5096128;28;20432;-73
2023/02/01 04:27:48;;;;;;;16.20;6.17;;;5.70;99.90;;;;;;5096136;28;20456;-73
2023/02/01 04:30:17;;;;;;;26.87;6.87;;;5.70;99.90;;;;;;5096116;28;20527;-73
2023/02/01 04:32:45;;;;;;;19.87;5.50;;;5.70;99.90;;;;;;5095631;28;20441;-74
2023/02/01 04:35:13;;;;;;;16.93;6.10;;;5.70;99.90;;;;;;5096212;28;20436;-73
2023/02/01 04:37:41;;;;;;;14.57;5.40;;;5.70;99.90;;;;;;5077561;28;20460;-73
2023/02/01 04:40:10;;;;;;;15.60;6.60;;;5.70;99.90;;;;;;5095974;28;20429;-73
2023/02/01 04:42:40;;;;;;;16.70;7.20;;;5.70;99.90;;;;;;5077772;28;21060;-74
2023/02/01 04:45:09;;;;;;;17.37;6.33;;;5.70;99.90;;;;;;5095956;28;20442;-74
2023/02/01 04:47:37;;;;;;;16.73;6.53;;;5.70;99.90;;;;;;5095892;28;20456;-74
2023/02/01 04:50:07;;;;;;;17.87;6.70;;;5.70;99.90;;;;;;5077677;28;20447;-74
2023/02/01 04:52:35;;;;;;;22.13;7.03;;;5.70;99.90;;;;;;5077696;28;20440;-74
2023/02/01 04:55:04;;;;;;;17.47;6.80;;;5.70;99.90;;;;;;5095542;28;20444;-73
2023/02/01 04:57:32;;;;;;;20.50;7.60;;;5.70;99.90;;;;;;5095607;28;20575;-74
2023/02/01 05:00:02;;;;;;;19.43;7.47;;;5.70;99.90;;;;;;5095778;28;20456;-74
2023/02/01 05:02:32;;;;;;;18.27;6.70;;;5.80;99.90;;;;;;5095464;28;20438;-73
2023/02/01 05:05:00;;;;;;;16.17;5.80;;;5.80;99.90;;;;;;5096015;28;20477;-73
2023/02/01 05:07:28;;;;;;;17.60;7.53;;;5.80;99.90;;;;;;5095169;28;20498;-73
2023/02/01 05:09:56;;;;;;;15.73;6.10;;;5.80;99.90;;;;;;5095800;28;20440;-73
2023/02/01 05:15:11;;;;;;;14.43;6.20;;;5.80;99.90;;;;;;5095575;28;20423;-73
2023/02/01 05:17:40;;;;;;;19.73;7.53;;;5.80;99.90;;;;;;5095263;28;20458;-73
2023/02/01 05:20:10;;;;;;;18.83;6.03;;;5.80;99.90;;;;;;5077977;28;20911;-73
2023/02/01 05:22:38;;;;;;;13.40;5.60;;;5.80;99.90;;;;;;5077193;28;20444;-73
2023/02/01 05:25:06;;;;;;;20.47;6.90;;;5.80;99.90;;;;;;5095069;28;20440;-73
2023/02/01 05:27:35;;;;;;;14.20;5.50;;;5.80;99.90;;;;;;5094934;28;20986;-73
2023/02/01 05:30:04;;;;;;;13.27;5.30;;;5.80;99.90;;;;;;5094781;28;20489;-73
2023/02/01 05:32:34;;;;;;;16.90;5.70;;;5.80;99.90;;;;;;5076724;28;20444;-73
2023/02/01 05:35:03;;;;;;;16.07;6.40;;;5.80;99.90;;;;;;5094903;28;20451;-73
2023/02/01 05:37:31;;;;;;;14.97;5.40;;;5.70;99.90;;;;;;5094644;28;20457;-73
2023/02/01 05:39:59;;;;;;;14.27;5.03;;;5.70;99.90;;;;;;5094500;28;20500;-73
2023/02/01 05:42:27;;;;;;;11.60;5.13;;;5.70;99.90;;;;;;5094885;28;20448;-73
2023/02/01 05:44:55;;;;;;;11.80;4.93;;;5.70;99.90;;;;;;5094807;28;20456;-73
2023/02/01 05:47:23;;;;;;;12.43;4.67;;;5.70;99.90;;;;;;5094393;28;20529;-73
2023/02/01 05:49:52;;;;;;;13.37;4.70;;;5.70;99.90;;;;;;5076230;28;20460;-73
2023/02/01 05:52:20;;;;;;;12.53;5.43;;;5.70;99.90;;;;;;5094631;28;20436;-73
2023/02/01 05:54:48;;;;;;;11.23;4.97;;;5.70;99.90;;;;;;5076188;28;20459;-73
2023/02/01 05:57:17;;;;;;;12.50;5.40;;;5.70;99.90;;;;;;5094054;28;20440;-74
2023/02/01 05:59:45;;;;;;;15.63;5.00;;;5.70;99.90;;;;;;5094467;28;20505;-73
2023/02/01 06:02:13;;;;;;;15.50;5.20;;;5.70;99.90;;;;;;5076269;28;20460;-73
2023/02/01 06:04:41;;;;;;;15.40;5.97;;;5.70;99.90;;;;;;5094580;28;20769;-73
2023/02/01 06:07:11;;;;;;;17.63;6.33;;;5.70;99.90;;;;;;5094020;28;20484;-73
2023/02/01 06:09:39;;;;;;;18.73;6.33;;;5.70;99.90;;;;;;5075922;28;20480;-73
2023/02/01 06:12:08;;;;;;;16.17;5.87;;;5.70;99.90;;;;;;5094021;28;20436;-73
2023/02/01 06:14:36;;;;;;;17.10;6.73;;;5.70;99.90;;;;;;5094325;28;20440;-73
2023/02/01 06:17:05;;;;;;;17.80;6.70;;;5.70;99.90;;;;;;5093961;28;20428;-74
2023/02/01 06:19:33;;;;;;;17.73;6.37;;;5.70;99.90;;;;;;5094066;28;20992;-74
2023/02/01 06:22:01;;;;;;;15.43;6.33;;;5.80;99.90;;;;;;5094109;28;20994;-74
2023/02/01 06:24:31;;;;;;;14.60;6.27;;;5.80;99.90;;;;;;5094129;28;20793;-74
2023/02/01 06:26:59;;;;;;;12.07;5.50;;;5.80;99.90;;;;;;5094051;28;20439;-73
2023/02/01 06:29:27;;;;;;;17.73;6.67;;;5.80;99.90;;;;;;5075562;28;20464;-73
2023/02/01 06:31:55;;;;;;;17.70;6.27;;;5.80;99.90;;;;;;5093697;28;20943;-73
2023/02/01 06:34:24;;;;;;;18.83;6.40;;;5.80;99.90;;;;;;5075494;28;20484;-74
2023/02/01 06:36:52;;;;;;;15.23;5.47;;;5.80;99.90;;;;;;5093639;28;20935;-74
2023/02/01 06:39:20;;;;;;;16.70;5.77;;;5.80;99.90;;;;;;5094064;28;20472;-74
2023/02/01 06:41:50;;;;;;;12.77;4.87;;;5.80;99.90;;;;;;5093651;28;21000;-73
2023/02/01 06:44:18;;;;;;;16.90;5.30;;;5.80;99.90;;;;;;5093531;28;20837;-74
2023/02/01 06:46:46;;;;;;;13.70;5.50;;;5.80;99.90;;;;;;5093789;28;20507;-75
2023/02/01 06:49:16;;;;;;;14.40;5.80;;;5.80;99.90;;;;;;5093440;28;20456;-74
2023/02/01 06:51:45;;;;;;;16.33;4.90;;;5.80;99.90;;;;;;5075464;28;20479;-74
2023/02/01 06:54:13;;;;;;;13.20;4.57;;;5.80;99.90;;;;;;5093416;28;20436;-74
2023/02/01 06:56:41;;;;;;;15.47;4.87;;;5.80;99.90;;;;;;5093280;28;20443;-74
2023/02/01 06:59:12;;;;;;;12.10;4.70;;;5.80;99.90;;;;;;5094393;28;20482;-74
2023/02/01 07:01:42;;;;;;;14.07;5.13;;;5.80;99.90;;;;;;5093791;28;20458;-74
2023/02/01 07:04:11;;;;;;;17.17;5.20;;;5.80;99.90;;;;;;5094124;28;20777;-74
2023/02/01 07:06:40;;;;;;;14.33;4.83;;;5.80;99.90;;;;;;5075611;28;20448;-74
2023/02/01 07:09:08;;;;;;;14.63;5.70;;;5.80;99.90;;;;;;5093275;28;20457;-73
2023/02/01 07:11:40;;;;;;;18.50;5.83;;;5.80;99.90;;;;;;5093586;28;20444;-74
2023/02/01 07:14:10;;;;;;;15.33;5.70;;;5.90;99.90;;;;;;5075467;28;20785;-73
2023/02/01 07:16:38;;;;;;;18.60;6.30;;;5.90;99.90;;;;;;5075095;28;20781;-74
2023/02/01 07:19:07;;;;;;;17.23;6.00;;;5.90;99.90;;;;;;5093043;28;20471;-74
2023/02/01 07:21:35;;;;;;;16.60;4.97;;;6.00;99.90;;;;;;5093169;28;20430;-74
2023/02/01 07:24:04;;;;;;;19.17;5.73;;;6.00;99.90;;;;;;5075116;28;20448;-74
2023/02/01 07:26:32;;;;;;;14.17;5.83;;;6.00;99.90;;;;;;5093175;28;20438;-74
2023/02/01 07:29:00;;;;;;;15.97;5.27;;;6.00;99.90;;;;;;5093123;28;20465;-73
2023/02/01 07:31:30;;;;;;;17.20;5.87;;;6.00;99.90;;;;;;5075106;28;20444;-73
2023/02/01 07:33:58;;;;;;;16.37;6.43;;;6.10;99.90;;;;;;5075035;28;20453;-73
2023/02/01 07:36:26;;;;;;;19.20;6.30;;;6.10;99.90;;;;;;5093870;28;20450;-74
2023/02/01 07:38:54;;;;;;;13.80;5.47;;;6.10;99.90;;;;;;5093001;28;20456;-74
2023/02/01 07:41:23;;;;;;;16.20;5.93;;;6.10;99.90;;;;;;5074817;28;21004;-74
2023/02/01 07:43:53;;;;;;;16.47;5.37;;;6.10;99.90;;;;;;5093372;28;20468;-73
2023/02/01 07:46:22;;;;;;;19.30;5.50;;;6.10;99.90;;;;;;5075131;28;20471;-73
2023/02/01 07:48:51;;;;;;;17.53;6.00;;;6.10;99.90;;;;;;5092986;28;20950;-73
2023/02/01 07:51:20;;;;;;;13.13;5.40;;;6.10;99.90;;;;;;5093298;28;20433;-73
2023/02/01 07:53:48;;;;;;;15.40;4.90;;;6.10;99.90;;;;;;5092882;28;20438;-73
2023/02/01 07:56:17;;;;;;;15.10;5.37;;;6.10;99.90;;;;;;5092804;28;20440;-74
2023/02/01 07:58:49;;;;;;;17.57;6.53;;;6.10;99.90;;;;;;5074870;28;21067;-73
2023/02/01 08:01:20;;;;;;;12.70;5.00;;;6.10;99.90;;;;;;5093102;28;20461;-73
2023/02/01 08:03:48;;;;;;;14.53;5.97;;;6.10;99.90;;;;;;5093113;28;20466;-73
2023/02/01 08:06:19;;;;;;;16.03;5.60;;;6.00;99.90;;;;;;5074731;28;20448;-74
2023/02/01 08:08:48;;;;;;;15.33;5.00;;;6.00;99.90;;;;;;5095396;28;20447;-73
2023/02/01 08:11:17;;;;;;;12.60;4.63;;;6.00;99.90;;;;;;5078227;28;20507;-73
2023/02/01 08:13:46;;;;;;;15.20;4.87;;;6.10;99.90;;;;;;5096333;28;20424;-74
2023/02/01 08:16:16;;;;;;;16.30;5.30;;;6.00;99.90;;;;;;5096588;28;20528;-74
2023/02/01 08:18:44;;;;;;;17.63;5.10;;;6.00;99.90;;;;;;5077997;28;20530;-74
2023/02/01 08:21:14;;;;;;;14.63;5.17;;;6.10;99.90;;;;;;5096154;28;20464;-74
2023/02/01 08:23:45;;;;;;;17.00;5.40;;;6.10;99.90;;;;;;5078110;28;20535;-73
2023/02/01 08:26:18;;;;;;;15.97;5.17;;;6.10;99.90;;;;;;5096195;28;20418;-73
2023/02/01 08:28:48;;;;;;;14.30;5.07;;;6.10;99.90;;;;;;5096654;28;20464;-74
2023/02/01 08:31:20;;;;;;;15.50;5.70;;;6.10;99.90;;;;;;5095997;28;20437;-74
2023/02/01 08:33:51;;;;;;;15.00;5.23;;;6.20;99.90;;;;;;5096294;28;20888;-73
2023/02/01 08:36:20;;;;;;;16.33;5.50;;;6.20;99.90;;;;;;5079085;28;20460;-74
2023/02/01 08:38:49;;;;;;;16.50;5.23;;;6.20;99.90;;;;;;5095902;28;20820;-73
2023/02/01 08:41:19;;;;;;;17.83;6.23;;;6.30;99.90;;;;;;5077603;28;20490;-74
2023/02/01 08:43:48;;;;;;;20.93;5.57;;;6.30;99.90;;;;;;5095760;28;20476;-74
2023/02/01 08:46:17;;;;;;;12.20;4.73;;;6.30;99.90;;;;;;5095751;28;20570;-73
2023/02/01 08:48:47;;;;;;;15.50;5.20;;;6.30;99.90;;;;;;5077535;28;20471;-73
2023/02/01 08:51:16;;;;;;;18.13;5.17;;;6.30;99.90;;;;;;5095933;28;20438;-73
2023/02/01 08:53:45;;;;;;;13.20;4.50;;;6.30;99.90;;;;;;5095633;28;20475;-73
2023/02/01 08:56:16;;;;;;;14.23;5.53;;;6.30;99.90;;;;;;5077517;28;20444;-74
2023/02/01 08:58:44;;;;;;;11.30;5.00;;;6.30;99.90;;;;;;5077575;28;20472;-74
2023/02/01 09:01:15;;;;;;;15.00;5.40;;;6.30;99.90;;;;;;5095727;28;20525;-73
2023/02/01 09:03:43;;;;;;;16.13;5.40;;;6.40;99.90;;;;;;5077284;28;20439;-73
2023/02/01 09:06:14;;;;;;;14.97;5.90;;;6.40;99.90;;;;;;5095317;28;20441;-73
2023/02/01 09:08:43;;;;;;;18.90;6.13;;;6.40;99.90;;;;;;5095282;28;20470;-73
2023/02/01 09:11:15;;;;;;;16.90;5.30;;;6.40;99.90;;;;;;5095129;28;20434;-73
2023/02/01 09:13:44;;;;;;;17.07;5.03;;;6.40;99.90;;;;;;5077155;28;20527;-73
2023/02/01 09:16:12;;;;;;;16.67;5.17;;;6.40;99.90;;;;;;5095505;28;20441;-73
2023/02/01 09:18:41;;;;;;;14.43;5.60;;;6.50;99.90;;;;;;5076576;28;20461;-73
2023/02/01 09:21:29;;;;;;;15.77;5.27;;;6.50;99.90;;;;;;5095105;28;20450;-73
2023/02/01 09:23:57;;;;;;;15.70;4.73;;;6.50;99.90;;;;;;5094999;28;20933;-73
2023/02/01 09:26:27;;;;;;;17.77;5.30;;;6.50;99.90;;;;;;5076947;28;20931;-73
2023/02/01 09:29:00;;;;;;;18.80;6.67;;;6.50;99.90;;;;;;5076847;28;20474;-72
2023/02/01 09:31:29;;;;;;;13.67;5.00;;;6.60;99.90;;;;;;5076958;28;20452;-73
2023/02/01 09:33:57;;;;;;;17.10;5.47;;;6.60;99.90;;;;;;5076794;28;21052;-73
2023/02/01 09:36:25;;;;;;;18.27;5.60;;;6.60;99.90;;;;;;5094738;28;20440;-73
2023/02/01 09:38:56;;;;;;;14.93;5.30;;;6.60;99.90;;;;;;5076689;28;20475;-74
2023/02/01 09:41:38;;;;;;;22.03;6.73;;;6.60;99.90;;;;;;5076506;28;20528;-73
2023/02/01 09:44:19;;;;;;;17.30;6.07;;;6.70;99.90;;;;;;5076509;28;20984;-73
2023/02/01 09:46:48;;;;;;;14.00;4.80;;;6.70;99.90;;;;;;5095199;28;20511;-72
2023/02/01 09:49:22;;;;;;;12.50;4.70;;;6.70;99.90;;;;;;5094875;28;20991;-72
2023/02/01 09:51:53;;;;;;;14.63;5.77;;;6.80;99.90;;;;;;5094752;28;20901;-72
2023/02/01 09:54:24;;;;;;;18.00;6.00;;;6.70;99.90;;;;;;5076617;28;20445;-72
2023/02/01 09:56:57;;;;;;;19.20;6.23;;;6.80;99.90;;;;;;5094965;28;20426;-72
2023/02/01 09:59:33;;;;;;;15.33;4.90;;;6.80;99.90;;;;;;5076569;28;20515;-73
2023/02/01 10:02:04;;;;;;;15.67;6.13;;;6.80;99.90;;;;;;5076165;28;20826;-73
2023/02/01 10:04:33;;;;;;;14.17;5.63;;;6.80;99.90;;;;;;5076280;28;20872;-73
2023/02/01 10:07:14;;;;;;;13.47;5.70;;;6.80;99.90;;;;;;5094508;28;20487;-73
2023/02/01 10:09:51;;;;;;;13.77;5.10;;;6.80;99.90;;;;;;5076058;28;20986;-72
2023/02/01 10:12:41;;;;;;;14.63;5.23;;;6.80;99.90;;;;;;5094257;28;20511;-73
2023/02/01 10:15:27;;;;;;;15.47;5.50;;;6.80;99.90;;;;;;5094194;28;20816;-73
2023/02/01 10:18:09;;;;;;;16.53;5.60;;;6.80;99.90;;;;;;5077114;28;21052;-73
2023/02/01 10:20:53;;;;;;;15.27;5.37;;;6.80;99.90;;;;;;5095718;28;20436;-72
2023/02/01 10:23:33;;;;;;;15.40;5.20;;;6.80;99.90;;;;;;5095227;28;20449;-72
2023/02/01 10:26:07;;;;;;;22.00;6.63;;;6.80;99.90;;;;;;5075734;28;20453;-72
2023/02/01 10:28:39;;;;;;;18.80;5.30;;;6.80;99.90;;;;;;5093967;28;20456;-73
2023/02/01 10:31:09;;;;;;;16.93;5.57;;;6.80;99.90;;;;;;5093176;28;20421;-73
2023/02/01 10:33:44;;;;;;;14.37;5.67;;;6.80;99.90;;;;;;5075653;28;20480;-73
2023/02/01 10:36:18;;;;;;;14.97;5.33;;;6.80;99.90;;;;;;5094020;28;20417;-73
2023/02/01 10:38:46;;;;;;;13.73;5.30;;;6.70;99.90;;;;;;5075610;28;20886;-73
2023/02/01 10:41:17;;;;;;;16.10;5.50;;;6.70;99.90;;;;;;5094121;28;20829;-74
2023/02/01 10:43:51;;;;;;;16.37;5.73;;;6.70;99.90;;;;;;5093829;28;20440;-73
2023/02/01 10:46:19;;;;;;;18.20;5.40;;;6.70;99.90;;;;;;5093746;28;20785;-73
2023/02/01 10:48:49;;;;;;;15.97;5.90;;;6.60;99.90;;;;;;5093648;28;20459;-72
2023/02/01 10:51:22;;;;;;;15.53;5.60;;;6.60;99.90;;;;;;5076403;28;20445;-73
2023/02/01 10:53:54;;;;;;;16.03;5.13;;;6.60;99.90;;;;;;5094238;28;20424;-73
2023/02/01 10:56:24;;;;;;;12.80;5.30;;;6.60;99.90;;;;;;5093598;28;20447;-73
2023/02/01 10:59:02;;;;;;;17.23;4.90;;;6.70;99.90;;;;;;5094120;28;20494;-73
2023/02/01 11:01:35;;;;;;;11.17;4.60;;;6.60;99.90;;;;;;5093955;28;20465;-73
2023/02/01 11:04:05;;;;;;;12.67;4.40;;;6.60;99.90;;;;;;5093592;28;20422;-73
2023/02/01 11:06:36;;;;;;;14.80;6.00;;;6.60;99.90;;;;;;5075751;28;20811;-74
2023/02/01 11:09:17;;;;;;;11.50;4.80;;;6.60;99.90;;;;;;5093518;28;20487;-74
2023/02/01 11:11:57;;;;;;;19.10;5.57;;;6.60;99.90;;;;;;5093842;28;20413;-73
2023/02/01 11:14:38;;;;;;;14.80;4.97;;;6.60;99.90;;;;;;5093596;28;20486;-73
2023/02/01 11:17:26;;;;;;;15.57;4.90;;;6.60;99.90;;;;;;5075132;28;20453;-72
2023/02/01 11:20:02;;;;;;;15.33;5.57;;;6.60;99.90;;;;;;5093280;28;20414;-73
2023/02/01 11:22:30;;;;;;;11.73;5.53;;;6.60;99.90;;;;;;5075236;28;20485;-73
2023/02/01 11:25:01;;;;;;;13.03;4.73;;;6.60;99.90;;;;;;5093409;28;20434;-73
2023/02/01 11:27:29;;;;;;;13.37;4.50;;;6.60;99.90;;;;;;5093114;28;20460;-74
2023/02/01 11:30:03;;;;;;;9.30;4.00;;;6.50;99.90;;;;;;5075055;28;20514;-74
2023/02/01 11:32:32;;;;;;;15.33;4.93;;;6.50;99.90;;;;;;5093402;28;20427;-74
2023/02/01 11:35:03;;;;;;;11.27;4.30;;;6.50;99.90;;;;;;5093370;28;20438;-74
2023/02/01 11:37:36;;;;;;;13.93;4.50;;;6.50;99.90;;;;;;5074911;28;20476;-74
2023/02/01 11:40:24;;;;;;;10.67;4.40;;;6.40;99.90;;;;;;5093372;28;20421;-74
2023/02/01 11:42:59;;;;;;;13.97;3.90;;;6.30;99.90;;;;;;5077758;28;20858;-75
2023/02/01 11:45:31;;;;;;;11.57;4.00;;;6.30;99.90;;;;;;5097253;28;20422;-75
2023/02/01 11:48:00;;;;;;;9.63;4.10;;;6.30;99.90;;;;;;5097625;28;20463;-76
2023/02/01 11:50:37;;;;;;;10.00;3.70;;;6.20;99.90;;;;;;5078735;28;20483;-75
2023/02/01 11:53:23;;;;;;;10.73;4.57;;;6.20;99.90;;;;;;5078836;28;20531;-75
2023/02/01 11:56:02;;;;;;;8.63;3.53;;;6.20;99.90;;;;;;5096794;28;20949;-75
2023/02/01 11:58:47;;;;;;;10.00;4.30;;;6.10;99.90;;;;;;5078539;28;20840;-75
2023/02/01 12:01:37;;;;;;;9.27;3.70;;;6.10;99.90;;;;;;5078509;28;21073;-75
2023/02/01 12:04:36;;;;;;;13.17;4.20;;;6.10;99.90;;;;;;5096947;28;20422;-74
2023/02/01 12:07:15;;;;;;;11.13;4.40;;;6.10;99.90;;;;;;5096792;28;20444;-75
2023/02/01 12:09:54;;;;;;;10.17;3.80;;;6.10;99.90;;;;;;5078328;28;20441;-74
2023/02/01 12:12:30;;;;;;;6.73;3.30;;;6.00;99.90;;;;;;5078318;28;20454;-76
2023/02/01 12:15:20;;;;;;;9.17;3.63;;;6.00;99.90;;;;;;5078836;28;20450;-74
2023/02/01 12:18:24;;;;;;;8.93;3.03;;;6.10;99.90;;;;;;5096505;28;20456;-77
2023/02/01 12:21:05;;;;;;;4.50;1.10;;;6.00;99.90;;;;;;5096646;28;20899;-75
2023/02/01 12:23:50;;;;;;;3.47;0.80;;;5.90;99.90;;;;;;5078059;28;20464;-76
2023/02/01 12:26:54;;;;;;;2.40;0.70;;;5.60;99.90;;;;;;5096236;28;20478;-75
2023/02/01 12:29:47;;;;;;;2.20;0.73;;;5.40;99.90;;;;;;5055014;28;20463;-75
2023/02/01 12:32:27;;;;;;;2.67;0.67;;;5.10;99.90;;;;;;5078037;28;20440;-75
2023/02/01 12:35:30;;;;;;;2.40;0.70;;;4.90;99.90;;;;;;5096315;28;20420;-75
2023/02/01 12:38:10;;;;;;;2.10;0.60;;;4.80;99.90;;;;;;5078084;28;21012;-75
2023/02/01 12:40:52;;;;;;;3.30;0.70;;;4.70;99.90;;;;;;5096148;28;20428;-74
2023/02/01 12:43:25;;;;;;;2.80;0.73;;;4.60;99.90;;;;;;5077635;28;20460;-74
2023/02/01 12:45:59;;;;;;;2.73;0.80;;;4.60;99.90;;;;;;5095755;28;20900;-76
2023/02/01 12:48:32;;;;;;;2.63;0.90;;;4.50;99.90;;;;;;5095558;28;20558;-75
2023/02/01 12:51:05;;;;;;;2.20;0.80;;;4.50;99.90;;;;;;5077607;28;20785;-75
2023/02/01 12:53:47;;;;;;;2.60;1.00;;;4.50;99.90;;;;;;5095023;28;20962;-75
2023/02/01 12:56:22;;;;;;;3.13;0.90;;;4.50;99.90;;;;;;5077465;28;20428;-75
2023/02/01 12:58:54;;;;;;;3.73;1.20;;;4.60;99.90;;;;;;5077343;28;20471;-75
2023/02/01 13:01:28;;;;;;;4.07;1.03;;;4.60;99.90;;;;;;5077347;28;20428;-75
2023/02/01 13:04:05;;;;;;;3.30;0.80;;;4.70;99.90;;;;;;5077280;28;20488;-75
2023/02/01 13:06:39;;;;;;;3.30;1.20;;;4.70;99.90;;;;;;5077852;28;20470;-75
2023/02/01 13:09:16;;;;;;;3.43;0.90;;;4.70;99.90;;;;;;5097483;28;20462;-74
2023/02/01 13:11:47;;;;;;;3.70;1.13;;;4.80;99.90;;;;;;5097666;28;20530;-74
2023/02/01 13:14:26;;;;;;;4.27;1.57;;;4.80;99.90;;;;;;5097722;28;20409;-74
2023/02/01 13:17:00;;;;;;;4.63;1.40;;;4.90;99.90;;;;;;5079931;28;20447;-75
2023/02/01 13:19:33;;;;;;;4.60;1.77;;;4.90;99.90;;;;;;5097721;28;20497;-74
2023/02/01 13:22:07;;;;;;;4.87;2.50;;;5.00;99.90;;;;;;5099546;28;20417;-74
2023/02/01 13:24:42;;;;;;;8.20;2.20;;;5.00;99.90;;;;;;5099895;28;20511;-75
2023/02/01 13:27:13;;;;;;;5.83;1.80;;;5.10;99.90;;;;;;5099342;28;20427;-74
2023/02/01 13:29:49;;;;;;;8.87;2.03;;;5.10;99.90;;;;;;5099272;28;20416;-74
2023/02/01 13:32:48;;;;;;;5.23;1.93;;;5.20;99.90;;;;;;5099694;28;20416;-74
2023/02/01 13:36:04;;;;;;;6.90;2.03;;;5.20;99.90;;;;;;5080446;28;20857;-74